Time;durP1;ratioP1;P1;durP2;ratioP2;P2;SDS_P1;SDS_P2;PMS_P1;PMS_P2;Temp;Humidity;BMP_temperature;BMP_pressure;BME280_temperature;BME280_humidity;BME280_pressure;Samples;Min_cycle;Max_cycle;Signal;HPM_P1;HPM_P2
2023/07/21 00:01:08;;;;;;;;;;;16.00;99.90;;;;;;5053821;28;19908;-85
2023/07/21 00:03:34;;;;;;;;;;;16.00;99.90;;;;;;5036534;28;19995;-86
2023/07/21 00:06:00;;;;;;;;;;;16.00;99.90;;;;;;5035963;28;19908;-86
2023/07/21 00:08:26;;;;;;;;;;;15.90;99.90;;;;;;5035953;28;19961;-85
2023/07/21 00:14:20;;;;;;;;;;;15.80;99.90;;;;;;5054172;28;19959;-86
2023/07/21 00:16:47;;;;;;;;;;;15.70;99.90;;;;;;5035404;28;19912;-85
2023/07/21 00:19:12;;;;;;;;;;;15.70;99.90;;;;;;5052378;28;20716;-85
2023/07/21 00:21:38;;;;;;;;;;;15.70;99.90;;;;;;5052542;28;19904;-85
2023/07/21 00:24:04;;;;;;;;;;;15.70;99.90;;;;;;5052433;28;19909;-85
2023/07/21 00:26:30;;;;;;;;;;;15.60;99.90;;;;;;5035376;28;19909;-85
2023/07/21 00:32:23;;;;;;;;;;;15.60;99.90;;;;;;5039298;28;19920;-85
2023/07/21 00:34:51;;;;;;;;;;;15.40;99.90;;;;;;5047525;28;19913;-85
2023/07/21 00:37:17;;;;;;;;;;;15.40;99.90;;;;;;5041321;28;20406;-85
2023/07/21 00:39:44;;;;;;;;;;;15.30;99.90;;;;;;5084737;28;19916;-85
2023/07/21 00:42:10;;;;;;;;;;;15.30;99.90;;;;;;5045937;28;19908;-85
2023/07/21 00:44:36;;;;;;;;;;;15.30;99.90;;;;;;5049493;28;20380;-85
2023/07/21 00:47:02;;;;;;;;;;;15.30;99.90;;;;;;5066178;28;19918;-85
2023/07/21 00:49:36;;;;;;;;;;;15.20;99.90;;;;;;5068385;28;19991;-85
2023/07/21 00:52:02;;;;;;;;;;;15.30;99.90;;;;;;5051368;28;19913;-85
2023/07/21 00:54:27;;;;;;;;;;;15.20;99.90;;;;;;5035842;28;19916;-85
2023/07/21 00:56:53;;;;;;;;;;;15.20;99.90;;;;;;5034729;28;20348;-85
2023/07/21 00:59:19;;;;;;;;;;;15.30;99.90;;;;;;5051496;28;20336;-85
2023/07/21 01:01:44;;;;;;;;;;;15.20;99.90;;;;;;5035689;28;19930;-85
2023/07/21 01:04:10;;;;;;;;;;;15.10;99.90;;;;;;5051873;28;19909;-85
2023/07/21 01:06:37;;;;;;;;;;;15.20;99.90;;;;;;5035729;28;19988;-85
2023/07/21 01:09:06;;;;;;;;;;;15.10;99.90;;;;;;5085022;28;20303;-85
2023/07/21 01:11:33;;;;;;;;;;;15.20;99.90;;;;;;5034747;28;20041;-85
2023/07/21 01:14:02;;;;;;;;;;;15.20;99.90;;;;;;5051204;28;20284;-85
2023/07/21 01:16:29;;;;;;;;;;;15.30;99.90;;;;;;5034896;28;19991;-85
2023/07/21 01:18:55;;;;;;;;;;;15.30;99.90;;;;;;5051356;28;19908;-85
2023/07/21 01:21:30;;;;;;;;;;;15.30;99.90;;;;;;5034946;28;19951;-85
2023/07/21 01:24:00;;;;;;;;;;;15.30;99.90;;;;;;5085703;28;20008;-86
2023/07/21 01:26:29;;;;;;;;;;;15.30;99.90;;;;;;5034954;28;19936;-86
2023/07/21 01:28:55;;;;;;;;;;;15.30;99.90;;;;;;5038388;28;19908;-85
2023/07/21 01:31:21;;;;;;;;;;;15.30;99.90;;;;;;5038694;28;19913;-85
2023/07/21 01:33:47;;;;;;;;;;;15.20;99.90;;;;;;5038396;28;20427;-85
2023/07/21 01:36:13;;;;;;;;;;;15.20;99.90;;;;;;5034060;28;19916;-86
2023/07/21 01:38:39;;;;;;;;;;;15.10;99.90;;;;;;5037819;28;19909;-85
2023/07/21 01:41:06;;;;;;;;;;;15.00;99.90;;;;;;5037980;28;19962;-85
2023/07/21 01:43:32;;;;;;;;;;;14.90;99.90;;;;;;5038421;28;20336;-85
2023/07/21 01:45:58;;;;;;;;;;;15.00;99.90;;;;;;5054500;28;19954;-86
2023/07/21 01:48:24;;;;;;;;;;;14.90;99.90;;;;;;5038569;28;19961;-85
2023/07/21 01:54:25;;;;;;;;;;;15.00;99.90;;;;;;5055534;28;19920;-85
2023/07/21 01:56:55;;;;;;;;;;;15.10;99.90;;;;;;5050855;28;20356;-85
2023/07/21 01:59:21;;;;;;;;;;;15.10;99.90;;;;;;5046084;28;19908;-85
2023/07/21 02:01:48;;;;;;;;;;;15.10;99.90;;;;;;5034468;28;19915;-85
2023/07/21 02:04:23;;;;;;;;;;;15.20;99.90;;;;;;5053624;28;19912;-85
2023/07/21 02:06:52;;;;;;;;;;;15.20;99.90;;;;;;5031576;28;19931;-85
2023/07/21 02:09:19;;;;;;;;;;;15.20;99.90;;;;;;5053878;28;19909;-85
2023/07/21 02:11:45;;;;;;;;;;;15.20;99.90;;;;;;5037459;28;19909;-85
2023/07/21 02:14:34;;;;;;;;;;;15.30;99.90;;;;;;5048612;28;19909;-85
2023/07/21 02:16:59;;;;;;;;;;;15.30;99.90;;;;;;5053906;28;20426;-85
2023/07/21 02:19:25;;;;;;;;;;;15.20;99.90;;;;;;5037755;28;19962;-85
2023/07/21 02:21:51;;;;;;;;;;;15.20;99.90;;;;;;5054462;28;19909;-86
2023/07/21 02:24:16;;;;;;;;;;;15.20;99.90;;;;;;5054323;28;19916;-86
2023/07/21 02:26:42;;;;;;;;;;;15.20;99.90;;;;;;5037769;28;19948;-85
2023/07/21 02:29:10;;;;;;;;;;;15.20;99.90;;;;;;5087461;28;19936;-85
2023/07/21 02:31:37;;;;;;;;;;;15.10;99.90;;;;;;5037812;28;19914;-86
2023/07/21 02:34:05;;;;;;;;;;;15.10;99.90;;;;;;5053923;28;19991;-85
2023/07/21 02:36:30;;;;;;;;;;;15.00;99.90;;;;;;5054009;28;19909;-86
2023/07/21 02:38:56;;;;;;;;;;;15.10;99.90;;;;;;5050324;28;19923;-85
2023/07/21 02:41:22;;;;;;;;;;;15.10;99.90;;;;;;5054090;28;19912;-85
2023/07/21 02:43:47;;;;;;;;;;;15.00;99.90;;;;;;5037579;28;19912;-85
2023/07/21 02:46:14;;;;;;;;;;;15.00;99.90;;;;;;5053088;28;20330;-85
2023/07/21 02:48:40;;;;;;;;;;;15.00;99.90;;;;;;5036755;28;20375;-85
2023/07/21 02:51:05;;;;;;;;;;;15.00;99.90;;;;;;5053567;28;19955;-85
2023/07/21 02:53:39;;;;;;;;;;;15.00;99.90;;;;;;5037462;28;19967;-86
2023/07/21 02:56:05;;;;;;;;;;;14.90;99.90;;;;;;5053360;28;19909;-85
2023/07/21 02:58:38;;;;;;;;;;;14.90;99.90;;;;;;5038039;28;19916;-85
2023/07/21 03:01:04;;;;;;;;;;;14.80;99.90;;;;;;5054319;28;19909;-86
2023/07/21 03:03:35;;;;;;;;;;;14.70;99.90;;;;;;5038169;28;20372;-85
2023/07/21 03:06:09;;;;;;;;;;;14.50;99.90;;;;;;5057808;28;19900;-85
2023/07/21 03:08:35;;;;;;;;;;;14.30;99.90;;;;;;5055683;28;19912;-85
2023/07/21 03:11:06;;;;;;;;;;;14.20;99.90;;;;;;5106154;28;19958;-85
2023/07/21 03:13:36;;;;;;;;;;;14.00;99.90;;;;;;5056894;28;19912;-85
2023/07/21 03:16:02;;;;;;;;;;;13.90;99.90;;;;;;5042099;28;20515;-85
2023/07/21 03:18:31;;;;;;;;;;;13.70;99.90;;;;;;5054015;28;19912;-85
2023/07/21 03:21:23;;;;;;;;;;;13.60;99.90;;;;;;5041240;28;20367;-85
2023/07/21 03:23:50;;;;;;;;;;;13.50;99.90;;;;;;5037631;28;19958;-85
2023/07/21 03:26:22;;;;;;;;;;;13.50;99.90;;;;;;5053072;28;19917;-85
2023/07/21 03:28:48;;;;;;;;;;;13.50;99.90;;;;;;5036466;28;20179;-86
2023/07/21 03:31:14;;;;;;;;;;;13.50;99.90;;;;;;5042122;28;19935;-85
2023/07/21 03:33:49;;;;;;;;;;;13.50;99.90;;;;;;5037857;28;19916;-85
2023/07/21 03:36:20;;;;;;;;;;;13.40;99.90;;;;;;5037018;28;20378;-85
2023/07/21 03:38:47;;;;;;;;;;;13.50;99.90;;;;;;5032789;28;20458;-85
2023/07/21 03:41:13;;;;;;;;;;;13.50;99.90;;;;;;5033639;28;19935;-85
2023/07/21 03:43:41;;;;;;;;;;;13.50;99.90;;;;;;5066391;28;20370;-85
2023/07/21 03:46:07;;;;;;;;;;;13.50;99.90;;;;;;5069103;28;20410;-86
2023/07/21 03:48:55;;;;;;;;;;;13.50;99.90;;;;;;5053090;28;19909;-85
2023/07/21 03:51:20;;;;;;;;;;;13.60;99.90;;;;;;5085874;28;19912;-85
2023/07/21 03:54:12;;;;;;;;;;;13.60;99.90;;;;;;5035850;28;19986;-85
2023/07/21 03:56:39;;;;;;;;;;;13.70;99.90;;;;;;5042952;28;19909;-85
2023/07/21 03:59:05;;;;;;;;;;;13.80;99.90;;;;;;5036135;28;20548;-85
2023/07/21 04:01:30;;;;;;;;;;;13.90;99.90;;;;;;5035815;28;20007;-86
2023/07/21 04:03:56;;;;;;;;;;;14.10;99.90;;;;;;5035582;28;19913;-86
2023/07/21 04:06:23;;;;;;;;;;;14.20;99.90;;;;;;5052336;28;19958;-85
2023/07/21 04:08:51;;;;;;;;;;;14.40;99.90;;;;;;5035788;28;20391;-85
2023/07/21 04:11:17;;;;;;;;;;;14.40;99.90;;;;;;5051925;28;19963;-85
2023/07/21 04:13:42;;;;;;;;;;;14.50;99.90;;;;;;5062766;28;20014;-86
2023/07/21 04:16:08;;;;;;;;;;;14.60;99.90;;;;;;5052181;28;19943;-85
2023/07/21 04:18:36;;;;;;;;;;;14.70;99.90;;;;;;5077885;28;19915;-86
2023/07/21 04:21:02;;;;;;;;;;;14.80;99.90;;;;;;5052105;28;19915;-86
2023/07/21 04:23:28;;;;;;;;;;;14.80;99.90;;;;;;5085571;28;19912;-86
2023/07/21 04:25:54;;;;;;;;;;;14.90;99.90;;;;;;5035266;28;19995;-86
2023/07/21 04:28:19;;;;;;;;;;;15.00;99.90;;;;;;5085516;28;20409;-85
2023/07/21 04:30:47;;;;;;;;;;;15.10;99.90;;;;;;5035138;28;19936;-85
2023/07/21 04:33:13;;;;;;;;;;;15.10;99.90;;;;;;5052170;28;20118;-86
2023/07/21 04:35:48;;;;;;;;;;;15.20;99.90;;;;;;5035095;28;19915;-85
2023/07/21 04:38:20;;;;;;;;;;;15.10;99.90;;;;;;5048105;28;20347;-86
2023/07/21 04:40:56;;;;;;;;;;;15.20;99.90;;;;;;5052025;28;19912;-86
2023/07/21 04:43:22;;;;;;;;;;;15.10;99.90;;;;;;5051772;28;20027;-86
2023/07/21 04:46:01;;;;;;;;;;;15.10;99.90;;;;;;5035404;28;19909;-85
2023/07/21 04:48:33;;;;;;;;;;;15.20;99.90;;;;;;5051629;28;19909;-86
2023/07/21 04:50:58;;;;;;;;;;;15.20;99.90;;;;;;5051688;28;19920;-85
2023/07/21 04:53:24;;;;;;;;;;;15.40;99.90;;;;;;5051086;28;19923;-86
2023/07/21 04:55:54;;;;;;;;;;;15.50;99.90;;;;;;5051589;28;20375;-86
2023/07/21 04:58:20;;;;;;;;;;;15.60;99.90;;;;;;5085418;28;19904;-86
2023/07/21 05:00:45;;;;;;;;;;;15.70;99.90;;;;;;5036473;28;19931;-85
2023/07/21 05:03:12;;;;;;;;;;;15.80;99.90;;;;;;5039055;28;20429;-86
2023/07/21 05:05:39;;;;;;;;;;;15.80;99.90;;;;;;5038763;28;19972;-86
2023/07/21 05:08:04;;;;;;;;;;;15.80;99.90;;;;;;5039182;28;20276;-86
2023/07/21 05:10:30;;;;;;;;;;;15.80;99.90;;;;;;5038563;28;19963;-86
2023/07/21 05:12:57;;;;;;;;;;;15.90;99.90;;;;;;5039066;28;20283;-86
2023/07/21 05:18:59;;;;;;;;;;;16.10;99.90;;;;;;5052620;28;20014;-86
2023/07/21 05:21:45;;;;;;;;;;;16.10;99.90;;;;;;5056029;28;19908;-86
2023/07/21 05:24:30;;;;;;;;;;;16.20;99.90;;;;;;5055286;28;19939;-86
2023/07/21 05:26:56;;;;;;;;;;;16.40;99.90;;;;;;5054355;28;19919;-85
2023/07/21 05:29:36;;;;;;;;;;;16.50;99.90;;;;;;5040068;28;20356;-86
2023/07/21 05:32:03;;;;;;;;;;;16.50;99.90;;;;;;5087816;28;19908;-86
2023/07/21 05:34:32;;;;;;;;;;;16.60;99.90;;;;;;5038239;28;20323;-87
2023/07/21 05:36:59;;;;;;;;;;;16.60;99.90;;;;;;5037903;28;19913;-86
2023/07/21 05:39:29;;;;;;;;;;;16.50;99.90;;;;;;5050140;28;20380;-86
2023/07/21 05:41:55;;;;;;;;;;;16.40;99.90;;;;;;5037619;28;20050;-86
2023/07/21 05:44:21;;;;;;;;;;;16.30;99.90;;;;;;5039489;28;20281;-86
2023/07/21 05:46:47;;;;;;;;;;;16.20;99.90;;;;;;5033796;28;19913;-86
2023/07/21 05:49:14;;;;;;;;;;;16.30;99.90;;;;;;5049572;28;20299;-86
2023/07/21 05:51:40;;;;;;;;;;;16.40;99.90;;;;;;5034784;28;19958;-85
2023/07/21 05:54:15;;;;;;;;;;;16.40;99.90;;;;;;5036890;28;19909;-85
2023/07/21 05:56:40;;;;;;;;;;;16.40;99.90;;;;;;5046933;28;19955;-85
2023/07/21 05:59:13;;;;;;;;;;;16.50;99.90;;;;;;5052904;28;19904;-86
2023/07/21 06:01:39;;;;;;;;;;;16.60;99.90;;;;;;5035269;28;19908;-86
2023/07/21 06:04:05;;;;;;;;;;;16.70;99.90;;;;;;5049949;28;19908;-86
2023/07/21 06:06:32;;;;;;;;;;;17.00;99.90;;;;;;5052907;28;20316;-86
2023/07/21 06:09:34;;;;;;;;;;;17.30;99.90;;;;;;5045951;28;20332;-86
2023/07/21 06:12:06;;;;;;;;;;;17.70;99.90;;;;;;5036455;28;20425;-86
2023/07/21 06:14:40;;;;;;;;;;;17.80;99.90;;;;;;5051707;28;19916;-86
2023/07/21 06:17:13;;;;;;;;;;;17.90;99.90;;;;;;5051843;28;19931;-86
2023/07/21 06:19:39;;;;;;;;;;;18.00;99.90;;;;;;5036788;28;19995;-86
2023/07/21 06:22:05;;;;;;;;;;;18.10;99.90;;;;;;5035429;28;19951;-86
2023/07/21 06:24:32;;;;;;;;;;;18.20;99.90;;;;;;5053061;28;20287;-86
2023/07/21 06:26:58;;;;;;;;;;;18.30;99.90;;;;;;5025961;28;19933;-86
2023/07/21 06:29:24;;;;;;;;;;;18.30;99.90;;;;;;5068707;28;19913;-86
2023/07/21 06:31:51;;;;;;;;;;;18.20;99.90;;;;;;5050979;28;19919;-86
2023/07/21 06:34:22;;;;;;;;;;;18.20;99.90;;;;;;5043090;28;19913;-86
2023/07/21 06:37:08;;;;;;;;;;;18.20;99.90;;;;;;5035497;28;20609;-85
2023/07/21 06:39:51;;;;;;;;;;;18.30;99.90;;;;;;5034419;28;20367;-86
2023/07/21 06:42:48;;;;;;;;;;;18.50;99.90;;;;;;5049509;28;19913;-86
2023/07/21 06:45:33;;;;;;;;;;;18.60;99.90;;;;;;5048800;28;20012;-85
2023/07/21 06:48:31;;;;;;;;;;;18.60;99.90;;;;;;5040881;28;20669;-85
2023/07/21 06:51:10;;;;;;;;;;;18.50;99.90;;;;;;5036863;28;20030;-86
2023/07/21 06:53:36;;;;;;;;;;;18.70;99.90;;;;;;5058122;28;20751;-86
2023/07/21 06:56:03;;;;;;;;;;;18.80;99.90;;;;;;5085695;28;19959;-86
2023/07/21 06:58:28;;;;;;;;;;;18.90;99.90;;;;;;5052220;28;20291;-86
2023/07/21 07:00:57;;;;;;;;;;;18.80;99.90;;;;;;5035638;28;20364;-86
2023/07/21 07:03:22;;;;;;;;;;;18.90;99.90;;;;;;5034963;28;19948;-86
2023/07/21 07:05:49;;;;;;;;;;;18.90;99.90;;;;;;5035824;28;19912;-86
2023/07/21 07:08:15;;;;;;;;;;;18.90;99.90;;;;;;5035871;28;19984;-86
2023/07/21 07:10:42;;;;;;;;;;;19.00;99.90;;;;;;5035159;28;20276;-86
2023/07/21 07:13:08;;;;;;;;;;;19.00;99.90;;;;;;5034208;28;19932;-86
2023/07/21 07:15:35;;;;;;;;;;;19.10;99.90;;;;;;5045360;28;20310;-86
2023/07/21 07:18:01;;;;;;;;;;;19.00;99.90;;;;;;5045577;28;20019;-86
2023/07/21 07:20:28;;;;;;;;;;;18.90;99.90;;;;;;5033618;28;19935;-86
2023/07/21 07:22:54;;;;;;;;;;;18.90;99.90;;;;;;5063371;28;19928;-86
2023/07/21 07:25:23;;;;;;;;;;;18.90;99.90;;;;;;5050038;28;19908;-85
2023/07/21 07:27:49;;;;;;;;;;;18.80;99.90;;;;;;5034959;28;19962;-86
2023/07/21 07:30:16;;;;;;;;;;;18.80;99.90;;;;;;5026903;28;20283;-85
2023/07/21 07:32:43;;;;;;;;;;;18.70;99.90;;;;;;5034776;28;20257;-85
2023/07/21 07:35:10;;;;;;;;;;;18.60;99.90;;;;;;5048307;28;19908;-85
2023/07/21 07:37:35;;;;;;;;;;;18.50;99.90;;;;;;5049069;28;19948;-86
2023/07/21 07:40:05;;;;;;;;;;;18.50;99.90;;;;;;5032131;28;19951;-85
2023/07/21 07:42:30;;;;;;;;;;;18.50;99.90;;;;;;5067151;28;19909;-85
2023/07/21 07:44:59;;;;;;;;;;;18.60;99.90;;;;;;5028253;28;19924;-86
2023/07/21 07:47:25;;;;;;;;;;;18.80;99.90;;;;;;5049409;28;19919;-85
2023/07/21 07:49:51;;;;;;;;;;;19.10;99.90;;;;;;5034263;28;20018;-86
2023/07/21 07:52:18;;;;;;;;;;;19.30;99.90;;;;;;5045402;28;19924;-86
2023/07/21 07:54:44;;;;;;;;;;;19.50;99.90;;;;;;5050934;28;20391;-86
2023/07/21 07:57:10;;;;;;;;;;;19.70;99.90;;;;;;5066380;28;19909;-86
2023/07/21 07:59:35;;;;;;;;;;;19.70;99.90;;;;;;5051052;28;19908;-85
2023/07/21 08:02:01;;;;;;;;;;;19.60;99.90;;;;;;5048527;28;19912;-85
2023/07/21 08:04:27;;;;;;;;;;;19.40;99.90;;;;;;5064214;28;19916;-86
2023/07/21 08:06:52;;;;;;;;;;;19.10;99.90;;;;;;5051113;28;19908;-86
2023/07/21 08:09:18;;;;;;;;;;;18.90;99.90;;;;;;5050191;28;19927;-86
2023/07/21 08:11:44;;;;;;;;;;;18.90;99.90;;;;;;5034913;28;19908;-86
2023/07/21 08:14:09;;;;;;;;;;;19.00;99.90;;;;;;5048232;28;19917;-86
2023/07/21 08:16:36;;;;;;;;;;;19.00;99.90;;;;;;5051709;28;20451;-86
2023/07/21 08:19:02;;;;;;;;;;;19.00;99.90;;;;;;5058943;28;19955;-86
2023/07/21 08:21:28;;;;;;;;;;;19.20;99.90;;;;;;5055296;28;19995;-86
2023/07/21 08:23:54;;;;;;;;;;;19.40;99.90;;;;;;5034768;28;19955;-86
2023/07/21 08:26:20;;;;;;;;;;;19.90;99.90;;;;;;5035658;28;19951;-86
2023/07/21 08:28:52;;;;;;;;;;;20.40;99.90;;;;;;5051256;28;19909;-86
2023/07/21 08:31:36;;;;;;;;;;;20.90;99.90;;;;;;5051377;28;19932;-86
2023/07/21 08:34:02;;;;;;;;;;;21.00;99.90;;;;;;5040780;28;19921;-86
2023/07/21 08:36:28;;;;;;;;;;;21.00;99.90;;;;;;5057391;28;19931;-86
2023/07/21 08:38:53;;;;;;;;;;;21.00;99.90;;;;;;5041170;28;19954;-86
2023/07/21 08:41:23;;;;;;;;;;;20.80;99.90;;;;;;5041218;28;20616;-86
2023/07/21 08:43:49;;;;;;;;;;;20.90;99.90;;;;;;5038588;28;19916;-86
2023/07/21 08:46:15;;;;;;;;;;;21.40;99.90;;;;;;5035272;28;19958;-86
2023/07/21 08:48:41;;;;;;;;;;;21.30;99.90;;;;;;5058760;28;19913;-87
2023/07/21 08:51:06;;;;;;;;;;;21.60;99.90;;;;;;5046621;28;19913;-86
2023/07/21 08:53:32;;;;;;;;;;;22.00;99.90;;;;;;5057555;28;19919;-86
2023/07/21 08:55:59;;;;;;;;;;;22.00;99.90;;;;;;5057709;28;19909;-86
2023/07/21 08:58:25;;;;;;;;;;;22.10;99.90;;;;;;5037947;28;20368;-86
2023/07/21 09:00:52;;;;;;;;;;;22.20;99.90;;;;;;5074123;28;19964;-86
2023/07/21 09:03:22;;;;;;;;;;;22.60;99.90;;;;;;5040724;28;20003;-86
2023/07/21 09:05:48;;;;;;;;;;;23.00;99.90;;;;;;5041084;28;19913;-86
2023/07/21 09:08:17;;;;;;;;;;;23.20;99.90;;;;;;5057763;28;19908;-86
2023/07/21 09:10:43;;;;;;;;;;;22.60;99.90;;;;;;5074601;28;20537;-86
2023/07/21 09:13:13;;;;;;;;;;;22.40;99.90;;;;;;5057347;28;20007;-86
2023/07/21 09:15:39;;;;;;;;;;;22.00;99.90;;;;;;5057399;28;20376;-86
2023/07/21 09:18:05;;;;;;;;;;;22.00;99.90;;;;;;5057476;28;19908;-86
2023/07/21 09:20:31;;;;;;;;;;;22.20;99.90;;;;;;5057261;28;19908;-86
2023/07/21 09:22:56;;;;;;;;;;;22.70;99.90;;;;;;5057389;28;20585;-87
2023/07/21 09:25:22;;;;;;;;;;;22.90;99.90;;;;;;5058259;28;19925;-87
2023/07/21 09:27:51;;;;;;;;;;;22.90;99.90;;;;;;5047160;28;19912;-87
2023/07/21 09:30:17;;;;;;;;;;;22.90;99.90;;;;;;5098386;28;19912;-86
2023/07/21 09:32:43;;;;;;;;;;;23.60;99.90;;;;;;5074270;28;19913;-86
2023/07/21 09:35:11;;;;;;;;;;;24.20;99.90;;;;;;5057415;28;19955;-86
2023/07/21 09:37:38;;;;;;;;;;;24.90;99.90;;;;;;5065173;28;19948;-86
2023/07/21 09:40:10;;;;;;;;;;;24.70;99.10;;;;;;5039955;28;20395;-87
2023/07/21 09:42:36;;;;;;;;;;;24.40;99.90;;;;;;5032348;28;20403;-87
2023/07/21 09:45:02;;;;;;;;;;;24.00;99.80;;;;;;5056913;28;20470;-86
2023/07/21 09:47:28;;;;;;;;;;;23.50;99.90;;;;;;5053055;28;19940;-86
2023/07/21 09:49:54;;;;;;;;;;;23.10;99.90;;;;;;5068234;28;19905;-86
2023/07/21 09:52:20;;;;;;;;;;;22.80;99.60;;;;;;5037472;28;19920;-85
2023/07/21 09:54:55;;;;;;;;;;;22.90;99.90;;;;;;5037550;28;19915;-87
2023/07/21 09:57:25;;;;;;;;;;;23.30;99.90;;;;;;5034325;28;19909;-87
2023/07/21 09:59:54;;;;;;;;;;;25.10;99.20;;;;;;5037478;28;19909;-87
2023/07/21 10:02:21;;;;;;;;;;;25.50;97.80;;;;;;5067218;28;20432;-87
2023/07/21 10:04:47;;;;;;;;;;;25.80;98.00;;;;;;5037698;28;19913;-86
2023/07/21 10:07:13;;;;;;;;;;;25.90;97.20;;;;;;5035238;28;19916;-87
2023/07/21 10:09:39;;;;;;;;;;;25.50;97.00;;;;;;5032161;28;20000;-88
2023/07/21 10:12:16;;;;;;;;;;;25.20;96.90;;;;;;5050906;28;20277;-87
2023/07/21 10:14:42;;;;;;;;;;;24.90;96.00;;;;;;5050619;28;19915;-87
2023/07/21 10:17:08;;;;;;;;;;;24.10;96.00;;;;;;5053922;28;19909;-86
2023/07/21 10:19:41;;;;;;;;;;;24.00;96.20;;;;;;5048947;28;19931;-87
2023/07/21 10:22:09;;;;;;;;;;;23.50;96.70;;;;;;5051635;28;19917;-86
2023/07/21 10:24:41;;;;;;;;;;;22.70;97.30;;;;;;5036286;28;19955;-86
2023/07/21 10:27:07;;;;;;;;;;;22.30;97.80;;;;;;5047781;28;19962;-86
2023/07/21 10:29:32;;;;;;;;;;;22.20;98.90;;;;;;5033115;28;19916;-86
2023/07/21 10:31:59;;;;;;;;;;;22.50;99.20;;;;;;5069688;28;19908;-87
2023/07/21 10:34:25;;;;;;;;;;;22.90;98.80;;;;;;5037228;28;19920;-87
2023/07/21 10:36:51;;;;;;;;;;;23.30;98.10;;;;;;5037528;28;19995;-86
2023/07/21 10:39:20;;;;;;;;;;;23.40;97.90;;;;;;5037414;28;19952;-86
2023/07/21 10:41:47;;;;;;;;;;;23.40;97.40;;;;;;5054438;28;19916;-87
2023/07/21 10:44:12;;;;;;;;;;;23.70;98.30;;;;;;5054286;28;20022;-87
2023/07/21 10:46:39;;;;;;;;;;;24.10;97.10;;;;;;5086900;28;19955;-86
2023/07/21 10:49:05;;;;;;;;;;;24.50;96.30;;;;;;5036514;28;19990;-86
2023/07/21 10:51:31;;;;;;;;;;;25.00;95.10;;;;;;5053207;28;19909;-87
2023/07/21 10:53:56;;;;;;;;;;;25.30;94.50;;;;;;5053601;28;19923;-87
2023/07/21 10:56:22;;;;;;;;;;;25.60;94.20;;;;;;5050282;28;20003;-87
2023/07/21 10:58:51;;;;;;;;;;;26.00;94.20;;;;;;5035836;28;20374;-87
2023/07/21 11:01:18;;;;;;;;;;;25.50;95.10;;;;;;5037141;28;19920;-86
2023/07/21 11:03:46;;;;;;;;;;;25.00;95.50;;;;;;5086903;28;19909;-87
2023/07/21 11:06:15;;;;;;;;;;;24.80;95.60;;;;;;5036603;28;19913;-86
2023/07/21 11:08:40;;;;;;;;;;;24.20;96.00;;;;;;5053271;28;20015;-87
2023/07/21 11:11:07;;;;;;;;;;;23.70;96.60;;;;;;5035744;28;19963;-86
2023/07/21 11:13:33;;;;;;;;;;;23.20;94.80;;;;;;5052285;28;19917;-86
2023/07/21 11:16:00;;;;;;;;;;;23.00;96.30;;;;;;5052557;28;19916;-87
2023/07/21 11:18:28;;;;;;;;;;;22.90;96.30;;;;;;5052715;28;19912;-86
2023/07/21 11:20:54;;;;;;;;;;;23.20;96.50;;;;;;5036268;28;19952;-87
2023/07/21 11:23:24;;;;;;;;;;;23.50;96.30;;;;;;5030824;28;19958;-87
2023/07/21 11:26:02;;;;;;;;;;;24.00;95.50;;;;;;5061530;28;19951;-87
2023/07/21 11:28:31;;;;;;;;;;;24.30;95.90;;;;;;5036109;28;19909;-86
2023/07/21 11:30:57;;;;;;;;;;;24.60;95.00;;;;;;5036337;28;20421;-87
2023/07/21 11:33:23;;;;;;;;;;;24.80;93.80;;;;;;5052177;28;19920;-87
2023/07/21 11:35:50;;;;;;;;;;;24.40;94.00;;;;;;5052664;28;19928;-87
2023/07/21 11:38:15;;;;;;;;;;;24.10;94.00;;;;;;5035914;28;19916;-86
2023/07/21 11:40:41;;;;;;;;;;;24.40;94.90;;;;;;5052335;28;19912;-88
2023/07/21 11:43:07;;;;;;;;;;;24.60;94.20;;;;;;5054121;28;19948;-87
2023/07/21 11:45:40;;;;;;;;;;;24.20;94.90;;;;;;5036603;28;19995;-87
2023/07/21 11:48:14;;;;;;;;;;;24.50;95.30;;;;;;5063692;28;20035;-87
2023/07/21 11:50:50;;;;;;;;;;;25.00;93.80;;;;;;5035842;28;19970;-87
2023/07/21 11:53:16;;;;;;;;;;;25.20;94.10;;;;;;5057554;28;19940;-87
2023/07/21 11:55:43;;;;;;;;;;;25.00;93.50;;;;;;5034683;28;19966;-87
2023/07/21 11:58:10;;;;;;;;;;;24.50;93.50;;;;;;5034101;28;19919;-87
2023/07/21 12:00:35;;;;;;;;;;;24.70;93.90;;;;;;5043151;28;20027;-87
2023/07/21 12:03:01;;;;;;;;;;;25.10;93.60;;;;;;5054353;28;20066;-87
2023/07/21 12:05:27;;;;;;;;;;;24.80;93.20;;;;;;5051171;28;19938;-87
2023/07/21 12:07:53;;;;;;;;;;;24.50;93.70;;;;;;5035334;28;19986;-87
2023/07/21 12:10:19;;;;;;;;;;;24.50;94.40;;;;;;5051591;28;20284;-87
2023/07/21 12:12:44;;;;;;;;;;;24.20;94.50;;;;;;5035375;28;20272;-86
2023/07/21 12:15:13;;;;;;;;;;;23.90;94.20;;;;;;5049045;28;20003;-86
2023/07/21 12:17:39;;;;;;;;;;;23.40;94.70;;;;;;5070413;28;20007;-87
2023/07/21 12:20:11;;;;;;;;;;;22.70;94.60;;;;;;5052256;28;20287;-86
2023/07/21 12:22:40;;;;;;;;;;;22.30;94.80;;;;;;5035354;28;20342;-88
2023/07/21 12:25:37;;;;;;;;;;;22.20;94.30;;;;;;5051842;28;19973;-87
2023/07/21 12:28:04;;;;;;;;;;;22.00;93.60;;;;;;5068643;28;20003;-86
2023/07/21 12:30:29;;;;;;;;;;;21.90;94.40;;;;;;5035009;28;19939;-86
2023/07/21 12:32:55;;;;;;;;;;;21.90;94.50;;;;;;5035203;28;19913;-86
2023/07/21 12:35:21;;;;;;;;;;;22.00;94.80;;;;;;5034665;28;20000;-86
2023/07/21 12:37:46;;;;;;;;;;;21.90;94.40;;;;;;5035081;28;19923;-86
2023/07/21 12:40:12;;;;;;;;;;;22.00;94.60;;;;;;5035051;28;20422;-86
2023/07/21 12:42:41;;;;;;;;;;;22.00;94.40;;;;;;5034378;28;20347;-86
2023/07/21 12:45:07;;;;;;;;;;;21.80;94.80;;;;;;5034067;28;19912;-86
2023/07/21 12:48:10;;;;;;;;;;;21.30;94.90;;;;;;5053930;28;19916;-87
2023/07/21 12:50:35;;;;;;;;;;;20.90;95.20;;;;;;5036632;28;20363;-85
2023/07/21 12:53:01;;;;;;;;;;;20.40;95.30;;;;;;5034604;28;19960;-86
2023/07/21 12:55:26;;;;;;;;;;;20.10;95.80;;;;;;5034859;28;20300;-85
2023/07/21 12:57:52;;;;;;;;;;;19.90;96.50;;;;;;5083570;28;19943;-86
2023/07/21 13:00:18;;;;;;;;;;;19.80;96.90;;;;;;5034258;28;19909;-86
2023/07/21 13:02:44;;;;;;;;;;;19.70;97.00;;;;;;5034010;28;20284;-86
2023/07/21 13:05:12;;;;;;;;;;;19.80;97.30;;;;;;5057976;28;19905;-86
2023/07/21 13:07:39;;;;;;;;;;;19.80;97.40;;;;;;5026480;28;19917;-86
2023/07/21 13:10:05;;;;;;;;;;;19.90;97.20;;;;;;5050931;28;19920;-86
2023/07/21 13:12:31;;;;;;;;;;;19.80;97.00;;;;;;5080479;28;20364;-87
2023/07/21 13:14:56;;;;;;;;;;;19.70;97.40;;;;;;5051327;28;19920;-86
2023/07/21 13:17:31;;;;;;;;;;;19.70;97.10;;;;;;5051457;28;19913;-86
2023/07/21 13:19:57;;;;;;;;;;;19.70;97.50;;;;;;5034897;28;19913;-86
2023/07/21 13:22:22;;;;;;;;;;;19.60;97.50;;;;;;5074410;28;20066;-86
2023/07/21 13:24:48;;;;;;;;;;;19.40;97.10;;;;;;5056576;28;19978;-86
2023/07/21 13:27:14;;;;;;;;;;;19.30;97.50;;;;;;5038369;28;19934;-86
2023/07/21 13:29:39;;;;;;;;;;;19.20;97.90;;;;;;5037887;28;19958;-87
2023/07/21 13:32:05;;;;;;;;;;;19.10;99.50;;;;;;5054728;28;19922;-86
2023/07/21 13:34:32;;;;;;;;;;;18.80;99.90;;;;;;5038036;28;20410;-88
2023/07/21 13:36:58;;;;;;;;;;;18.30;99.90;;;;;;5054682;28;20275;-86
2023/07/21 13:39:38;;;;;;;;;;;17.80;99.90;;;;;;5037199;28;19919;-86
2023/07/21 13:42:03;;;;;;;;;;;17.40;99.90;;;;;;5056225;28;19951;-85
2023/07/21 13:44:29;;;;;;;;;;;17.20;99.90;;;;;;5054359;28;19935;-84
2023/07/21 13:46:55;;;;;;;;;;;17.10;99.90;;;;;;5053797;28;19995;-84
2023/07/21 13:49:23;;;;;;;;;;;17.00;99.90;;;;;;5036908;28;19912;-84
2023/07/21 13:51:49;;;;;;;;;;;16.70;99.90;;;;;;5054015;28;19919;-85
2023/07/21 13:54:15;;;;;;;;;;;16.30;99.90;;;;;;5037722;28;19916;-85
2023/07/21 13:56:41;;;;;;;;;;;16.10;99.90;;;;;;5054173;28;19913;-84
2023/07/21 13:59:07;;;;;;;;;;;15.80;99.90;;;;;;5037617;28;19916;-84
2023/07/21 14:01:33;;;;;;;;;;;15.70;99.90;;;;;;5037568;28;19943;-84
2023/07/21 14:03:58;;;;;;;;;;;15.60;99.90;;;;;;5046725;28;19944;-85
2023/07/21 14:06:24;;;;;;;;;;;15.60;99.90;;;;;;5053845;28;20027;-85
2023/07/21 14:08:49;;;;;;;;;;;15.70;99.90;;;;;;5037537;28;19917;-84
2023/07/21 14:11:15;;;;;;;;;;;15.70;99.90;;;;;;5054423;28;19951;-84
2023/07/21 14:13:41;;;;;;;;;;;15.60;99.90;;;;;;5037193;28;19916;-84
2023/07/21 14:16:07;;;;;;;;;;;15.50;99.90;;;;;;5036937;28;20565;-84
2023/07/21 14:18:32;;;;;;;;;;;15.60;99.90;;;;;;5036765;28;20253;-84
2023/07/21 14:20:58;;;;;;;;;;;15.90;99.90;;;;;;5053995;28;19917;-85
2023/07/21 14:23:25;;;;;;;;;;;16.10;99.90;;;;;;5054814;28;20276;-85
2023/07/21 14:25:51;;;;;;;;;;;16.20;99.90;;;;;;5053756;28;20552;-84
2023/07/21 14:28:16;;;;;;;;;;;16.40;99.90;;;;;;5054412;28;19912;-85
2023/07/21 14:30:42;;;;;;;;;;;16.70;99.90;;;;;;5053744;28;20423;-85
2023/07/21 14:33:07;;;;;;;;;;;17.20;99.90;;;;;;5036022;28;20351;-85
2023/07/21 14:35:33;;;;;;;;;;;17.40;99.90;;;;;;5036386;28;19912;-83